Arcata, California
Current Conditions -  °F | °C
As of 11:53 PM on Thursday 30 Oct 2014 (Local Time) from KACV Reporting Station
Moderate Rain Moderate Rain  
Wind Chill: 15°   Ceiling: 4600
Heat Index: 15°   Visibility: 6mi
Dew Point: 14°   Wind: 7mph
Humidity: 93%   Direction: 160°SSE
Pressure: 29.82"   Gusts: NA
Location:  40.87°N, 124.08°W
Report Text: KACV 310653Z AUTO 16006KT 6SM RA BR SCT033 BKN046 OVC070 15/14 A2982 RMK AO2 RAB03 SLP100 P0003 T01500139
Loading
Personal Weather Stations






























Interactive Weather Map
Tropical Storm Tracking
New forecast layout! Learn more

10-Day Weather Forecast

Advertisements
Track Severe Weather on mobile